Capt. T Le — WDC9568 — position and weather

sailwx.info

Track history (hours):
 
Tides and Currents Weather Stations Pressure Air Temp Water Temp Dewpoint Dewpoint Depression Visibility Wind Speed Wind Dir Waves Ship Positions

Capt. T Le

Owner: SO CAL SHIP SERVICES, INC, TERMINAL ISLAND, CA. More information available from US FCC via Universal Licensing System and Coast Guard Vessel Documentation Center.

Last reported at 2018-Jun-19 03:58 UTC. Time now 2018-Jun-19 04:22 UTC.
Position N 34°09' W 119°12'.

Length 30 m; draft 2 m.

Type: Ship (hazmat cat B). MMSI: 367104030.

Date/timePositionNaut miles runAvg speedWind from/ knotsBaromVisibWave heightAir tempDewpointWater temp
2018-Jun-19 03:58N 34°09' W 119°12'0 0.0
2018-Jun-19 03:30N 34°09' W 119°12'0 0.0
2018-Jun-19 03:00N 34°09' W 119°12'1 2.3
2018-Jun-19 02:30N 34°09' W 119°13'816.7
2018-Jun-19 02:00N 34°11' W 119°23'4 8.3
2018-Jun-19 01:27N 34°09' W 119°18'511.2
2018-Jun-19 01:00N 34°09' W 119°12'0 0.0
2018-Jun-19 00:29N 34°09' W 119°12'0 0.0
2018-Jun-19 00:00N 34°09' W 119°12'0 0.0
2018-Jun-18 23:29N 34°09' W 119°12'5 9.3
2018-Jun-18 22:58N 34°08' W 119°18'715.3
2018-Jun-18 22:30N 34°11' W 119°25'0 0.3
2018-Jun-18 22:00N 34°11' W 119°25'0 0.0
2018-Jun-18 21:30N 34°11' W 119°25'4 8.3
2018-Jun-18 20:58N 34°10' W 119°20'713.9
2018-Jun-18 20:30N 34°09' W 119°12'0 0.4
2018-Jun-18 20:00N 34°09' W 119°12'0 0.0
2018-Jun-18 19:30N 34°09' W 119°12'2 4.9
2018-Jun-18 19:00N 34°09' W 119°15'816.1
2018-Jun-18 18:30N 34°11' W 119°25'712.6
2018-Jun-18 17:57N 34°07' W 119°17'510.0
2018-Jun-18 17:26N 34°10' W 119°23'2 5.4
2018-Jun-18 17:00N 34°11' W 119°25'0 0.0
2018-Jun-18 16:30N 34°11' W 119°25'0 0.3
2018-Jun-18 16:00N 34°11' W 119°25'0 0.0
2018-Jun-18 15:29N 34°11' W 119°25'0 0.0
2018-Jun-18 14:59N 34°11' W 119°25'612.2
2018-Jun-18 14:30N 34°08' W 119°19'611.3
2018-Jun-18 14:00N 34°09' W 119°12'0 0.0
2018-Jun-18 13:29N 34°09' W 119°12'0 0.0
2018-Jun-18 12:59N 34°09' W 119°12'0 0.0
2018-Jun-18 12:30N 34°09' W 119°12'0 0.0
2018-Jun-18 11:58N 34°09' W 119°12'0 0.0
2018-Jun-18 11:30N 34°09' W 119°12'0 0.0
2018-Jun-18 10:59N 34°09' W 119°12'0 0.0
2018-Jun-18 10:30N 34°09' W 119°12'0 0.0
2018-Jun-18 10:00N 34°09' W 119°12'0 0.0
2018-Jun-18 09:29N 34°09' W 119°12'0 0.0
2018-Jun-18 09:00N 34°09' W 119°12'0 0.0
2018-Jun-18 08:30N 34°09' W 119°12'0 0.0
2018-Jun-18 08:00N 34°09' W 119°12'0 0.0
2018-Jun-18 07:30N 34°09' W 119°12'0 0.0
2018-Jun-18 07:00N 34°09' W 119°12'0 0.0
2018-Jun-18 06:28N 34°09' W 119°12'0 0.0
2018-Jun-18 06:00N 34°09' W 119°12'0 0.0
2018-Jun-18 05:21N 34°09' W 119°12'0 0.2
2018-Jun-18 05:00N 34°09' W 119°12'815.4
2018-Jun-18 04:28N 34°10' W 119°22'2 4.3
2018-Jun-18 04:00N 34°09' W 119°21'4 7.2
2018-Jun-18 03:29N 34°07' W 119°17'0 0.1
2018-Jun-18 03:00N 34°07' W 119°17'3 5.4
2018-Jun-18 02:30N 34°08' W 119°14'3 5.4
2018-Jun-18 02:00N 34°07' W 119°17'816.0
2018-Jun-18 01:31N 34°11' W 119°25'815.1
2018-Jun-18 01:00N 34°09' W 119°16'3 6.8
2018-Jun-18 00:30N 34°09' W 119°12'0 0.0
2018-Jun-18 00:00N 34°09' W 119°12'0 0.8
2018-Jun-17 23:30N 34°09' W 119°13'4 8.0
2018-Jun-17 23:00N 34°07' W 119°17'814.7
2018-Jun-17 22:30N 34°11' W 119°25'0 0.1
2018-Jun-17 22:00N 34°11' W 119°25'612.8
2018-Jun-17 21:29N 34°08' W 119°18'510.4
2018-Jun-17 20:59N 34°09' W 119°12'0 0.0
2018-Jun-17 20:30N 34°09' W 119°12'0 0.0
2018-Jun-17 20:00N 34°09' W 119°12'0 0.0
2018-Jun-17 19:30N 34°09' W 119°12'0 0.0
2018-Jun-17 19:00N 34°09' W 119°12'2 4.2
2018-Jun-17 18:30N 34°08' W 119°14'813.5
2018-Jun-17 17:56N 34°10' W 119°23'4 8.3
2018-Jun-17 17:27N 34°10' W 119°18'510.8
2018-Jun-17 16:58N 34°09' W 119°12'0 0.0
2018-Jun-17 16:30N 34°09' W 119°12'0 0.0
2018-Jun-17 15:54N 34°09' W 119°12'4 9.9
2018-Jun-17 15:29N 34°07' W 119°17'5 9.9
2018-Jun-17 14:59N 34°12' W 119°18'612.7
2018-Jun-17 14:30N 34°11' W 119°25'816.2
2018-Jun-17 14:00N 34°09' W 119°15'3 5.4
2018-Jun-17 13:30N 34°09' W 119°12'0 0.0
2018-Jun-17 13:00N 34°09' W 119°12'0 0.0
2018-Jun-17 12:30N 34°09' W 119°12'0 0.0
2018-Jun-17 12:00N 34°09' W 119°12'0 0.0
2018-Jun-17 11:29N 34°09' W 119°12'0 0.0
2018-Jun-17 11:00N 34°09' W 119°12'0 0.0
2018-Jun-17 10:30N 34°09' W 119°12'0 0.0
2018-Jun-17 09:57N 34°09' W 119°12'0 0.0
2018-Jun-17 09:29N 34°09' W 119°12'0 0.0
2018-Jun-17 09:00N 34°09' W 119°12'0 0.0
2018-Jun-17 08:29N 34°09' W 119°12'0 0.0
2018-Jun-17 07:56N 34°09' W 119°12'0 0.0
2018-Jun-17 07:29N 34°09' W 119°12'0 0.0
2018-Jun-17 06:59N 34°09' W 119°12'0 0.0
2018-Jun-17 06:30N 34°09' W 119°12'0 0.0
2018-Jun-17 06:00N 34°09' W 119°12'0 0.0
2018-Jun-17 05:30N 34°09' W 119°12'0 0.0
2018-Jun-17 04:55N 34°09' W 119°12'0 0.0
2018-Jun-17 04:30N 34°09' W 119°12'0 0.0
2018-Jun-17 04:00N 34°09' W 119°12'0 0.0
2018-Jun-17 03:30N 34°09' W 119°12'0 0.0
2018-Jun-17 03:00N 34°09' W 119°12'0 0.0
2018-Jun-17 02:28N 34°09' W 119°12'0 0.0
2018-Jun-17 01:59N 34°09' W 119°12'0 0.0
2018-Jun-17 01:30N 34°09' W 119°12'0 0.0
2018-Jun-17 00:57N 34°09' W 119°12'0 0.0
2018-Jun-17 00:30N 34°09' W 119°12'0 0.0
2018-Jun-16 23:58N 34°09' W 119°12'0 0.1
2018-Jun-16 23:28N 34°09' W 119°12'610.9
2018-Jun-16 22:56N 34°08' W 119°19'612.0
2018-Jun-16 22:28N 34°11' W 119°25'0 0.3
2018-Jun-16 21:59N 34°11' W 119°25'0 0.0
2018-Jun-16 21:30N 34°11' W 119°25'0 0.0
2018-Jun-16 21:00N 34°11' W 119°25'0 0.0
2018-Jun-16 20:29N 34°11' W 119°25'0 0.0
2018-Jun-16 19:59N 34°11' W 119°25'0 0.0
2018-Jun-16 19:30N 34°11' W 119°25'0 0.0
2018-Jun-16 19:00N 34°11' W 119°25'0 0.0
2018-Jun-16 18:30N 34°11' W 119°25'0 0.0
2018-Jun-16 17:59N 34°11' W 119°25'0 0.0
2018-Jun-16 17:30N 34°11' W 119°25'0 0.3
2018-Jun-16 17:00N 34°11' W 119°25'0 0.0
2018-Jun-16 16:29N 34°11' W 119°25'0 0.0
2018-Jun-16 16:00N 34°11' W 119°25'0 0.0
2018-Jun-16 15:30N 34°11' W 119°25'0 0.1
2018-Jun-16 15:00N 34°11' W 119°25'0 0.3
2018-Jun-16 14:31N 34°11' W 119°25'815.7
2018-Jun-16 14:00N 34°09' W 119°16'3 6.0
2018-Jun-16 13:30N 34°09' W 119°12'0 0.0
2018-Jun-16 12:58N 34°09' W 119°12'0 0.0
2018-Jun-16 12:28N 34°09' W 119°12'0 0.0
2018-Jun-16 11:58N 34°09' W 119°12'0 0.0
2018-Jun-16 11:30N 34°09' W 119°12'0 0.0
2018-Jun-16 10:58N 34°09' W 119°12'0 0.0
2018-Jun-16 10:30N 34°09' W 119°12'0 0.0
2018-Jun-16 09:56N 34°09' W 119°12'0 0.0
2018-Jun-16 09:30N 34°09' W 119°12'0 0.0
2018-Jun-16 09:00N 34°09' W 119°12'0 0.0
2018-Jun-16 08:29N 34°09' W 119°12'0 0.0
2018-Jun-16 07:53N 34°09' W 119°12'0 0.0
2018-Jun-16 07:30N 34°09' W 119°12'0 0.0
2018-Jun-16 07:00N 34°09' W 119°12'0 0.0
2018-Jun-16 06:29N 34°09' W 119°12'0 0.0
2018-Jun-16 05:57N 34°09' W 119°12'0 0.0
2018-Jun-16 05:31N 34°09' W 119°12'0 0.0
2018-Jun-16 05:00N 34°09' W 119°12'0 0.0
2018-Jun-16 04:28N 34°09' W 119°12'0 0.0
2018-Jun-16 04:00N 34°09' W 119°12'0 0.0
2018-Jun-16 03:27N 34°09' W 119°12'0 0.0
2018-Jun-16 02:58N 34°09' W 119°12'0 0.0
2018-Jun-16 02:28N 34°09' W 119°12'713.6
2018-Jun-16 01:56N 34°10' W 119°21'2 4.3
2018-Jun-16 01:30N 34°10' W 119°23'816.0
2018-Jun-16 00:59N 34°09' W 119°14'1 2.3
2018-Jun-16 00:27N 34°09' W 119°12'0 0.0
2018-Jun-15 23:58N 34°09' W 119°12'0 0.6
2018-Jun-15 23:23N 34°09' W 119°13'512.7
2018-Jun-15 22:58N 34°08' W 119°19'610.4
2018-Jun-15 22:24N 34°11' W 119°25'0 0.0
2018-Jun-15 22:00N 34°11' W 119°25'0 0.0
2018-Jun-15 21:30N 34°11' W 119°25'0 0.0
2018-Jun-15 20:57N 34°11' W 119°25'0 0.3
2018-Jun-15 20:28N 34°11' W 119°25'5 9.8
2018-Jun-15 20:00N 34°10' W 119°20'612.0
2018-Jun-15 19:28N 34°09' W 119°12'0 0.0
2018-Jun-15 18:57N 34°09' W 119°12'0 0.0
2018-Jun-15 18:30N 34°09' W 119°12'0 0.1
2018-Jun-15 17:42N 34°09' W 119°12'0 0.9
2018-Jun-15 17:21N 34°09' W 119°12'713.9
2018-Jun-15 16:53N 34°10' W 119°20'4 2.2
2018-Jun-15 15:01N 34°11' W 119°25'0 0.5
2018-Jun-15 14:55N 34°11' W 119°25'713.0
2018-Jun-15 14:21N 34°07' W 119°17'412.1
2018-Jun-15 14:00N 34°09' W 119°12'0 0.6
2018-Jun-15 13:30N 34°09' W 119°12'0 0.0
2018-Jun-15 13:00N 34°09' W 119°12'0 0.0
2018-Jun-15 12:29N 34°09' W 119°12'0 0.0
2018-Jun-15 11:53N 34°09' W 119°12'0 0.0
2018-Jun-15 11:27N 34°09' W 119°12'0 0.0
2018-Jun-15 10:57N 34°09' W 119°12'0 0.0
2018-Jun-15 10:30N 34°09' W 119°12'0 0.0
2018-Jun-15 09:58N 34°09' W 119°12'0 0.0
2018-Jun-15 09:29N 34°09' W 119°12'0 0.0
2018-Jun-15 08:58N 34°09' W 119°12'0 0.0
2018-Jun-15 08:30N 34°09' W 119°12'0 0.0
2018-Jun-15 07:19N 34°09' W 119°12'0 0.0
2018-Jun-15 06:57N 34°09' W 119°12'0 0.0
2018-Jun-15 06:25N 34°09' W 119°12'0 0.0
2018-Jun-15 05:57N 34°09' W 119°12'0 0.0
2018-Jun-15 05:27N 34°09' W 119°12'0 0.0
2018-Jun-15 04:53N 34°09' W 119°12'0 0.0
2018-Jun-15 04:27N 34°09' W 119°12'0 0.0
2018-Jun-15 03:54N 34°09' W 119°12'0 0.0
2018-Jun-15 03:30N 34°09' W 119°12'0 0.0
2018-Jun-15 02:56N 34°09' W 119°12'0 0.1
2018-Jun-15 02:30N 34°09' W 119°12'815.0
2018-Jun-15 01:58N 34°10' W 119°22'4 6.3
2018-Jun-15 01:17N 34°09' W 119°17'413.6
2018-Jun-15 01:00N 34°09' W 119°12'0 0.1
2018-Jun-15 00:30N 34°09' W 119°12'3 6.4
2018-Jun-15 00:00N 34°07' W 119°15'3 5.3
2018-Jun-14 23:27N 34°09' W 119°12'512.0
2018-Jun-14 23:00N 34°08' W 119°19'5 9.5
2018-Jun-14 22:30N 34°10' W 119°24'713.7
2018-Jun-14 22:00N 34°07' W 119°17'612.5
2018-Jun-14 21:30N 34°10' W 119°23'2 3.6
2018-Jun-14 21:00N 34°11' W 119°25'612.8
2018-Jun-14 20:30N 34°17' W 119°28'712.0
2018-Jun-14 19:57N 34°23' W 119°30'0 0.0
2018-Jun-14 19:30N 34°23' W 119°30'611.5
2018-Jun-14 19:00N 34°17' W 119°29'714.8
2018-Jun-14 18:30N 34°11' W 119°25'815.8
2018-Jun-14 18:00N 34°09' W 119°16'3 6.2
2018-Jun-14 17:30N 34°09' W 119°12'0 0.0
2018-Jun-14 17:00N 34°09' W 119°12'0 0.1
2018-Jun-14 16:31N 34°09' W 119°12'0 0.1
2018-Jun-14 16:00N 34°09' W 119°12'0 0.6
2018-Jun-14 15:30N 34°09' W 119°12'713.9
2018-Jun-14 15:00N 34°10' W 119°21'2 3.7
2018-Jun-14 14:30N 34°10' W 119°23'714.0
2018-Jun-14 14:00N 34°08' W 119°15'3 5.7
2018-Jun-14 13:30N 34°09' W 119°12'0 0.0
2018-Jun-14 12:58N 34°09' W 119°12'0 0.6
2018-Jun-14 12:30N 34°09' W 119°12'0 0.9
2018-Jun-14 12:00N 34°09' W 119°13'1 1.4
2018-Jun-14 11:30N 34°09' W 119°12'0 0.0
2018-Jun-14 10:57N 34°09' W 119°12'0 0.0
2018-Jun-14 10:30N 34°09' W 119°12'0 0.0
2018-Jun-14 10:00N 34°09' W 119°12'0 0.0
2018-Jun-14 09:30N 34°09' W 119°12'0 0.0
2018-Jun-14 08:58N 34°09' W 119°12'0 0.0
2018-Jun-14 08:30N 34°09' W 119°12'0 0.0
2018-Jun-14 08:00N 34°09' W 119°12'0 0.0
2018-Jun-14 07:29N 34°09' W 119°12'0 0.0
2018-Jun-14 07:00N 34°09' W 119°12'0 0.0
2018-Jun-14 06:28N 34°09' W 119°12'0 0.0
2018-Jun-14 06:00N 34°09' W 119°12'0 0.0
2018-Jun-14 05:30N 34°09' W 119°12'0 0.0
2018-Jun-14 04:59N 34°09' W 119°12'0 0.0
2018-Jun-14 04:30N 34°09' W 119°12'0 0.0
2018-Jun-14 03:57N 34°09' W 119°12'0 0.0
2018-Jun-14 03:28N 34°09' W 119°12'0 0.0
2018-Jun-14 03:00N 34°09' W 119°12'5 9.7
2018-Jun-14 02:30N 34°10' W 119°18'611.9
2018-Jun-14 01:59N 34°11' W 119°25'5 8.3
2018-Jun-14 01:25N 34°10' W 119°20'614.6
2018-Jun-14 01:00N 34°09' W 119°12'4 7.2
2018-Jun-14 00:28N 34°07' W 119°17'4 8.7
2018-Jun-14 00:00N 34°09' W 119°12'0 0.0
2018-Jun-13 23:28N 34°09' W 119°12'613.2
2018-Jun-13 23:00N 34°09' W 119°20'510.4
2018-Jun-13 22:30N 34°11' W 119°25'5 9.9
2018-Jun-13 22:00N 34°15' W 119°28'715.2
2018-Jun-13 21:30N 34°22' W 119°31'2 3.1
2018-Jun-13 21:00N 34°21' W 119°32'816.1
2018-Jun-13 20:30N 34°16' W 119°24'816.4
2018-Jun-13 20:00N 34°11' W 119°17'3 6.2
2018-Jun-13 19:31N 34°08' W 119°14'713.6
2018-Jun-13 19:01N 34°10' W 119°22'3 5.1
2018-Jun-13 18:30N 34°11' W 119°25'0 0.0
2018-Jun-13 18:00N 34°11' W 119°25'0 0.0
2018-Jun-13 17:31N 34°11' W 119°25'0 0.0
2018-Jun-13 17:01N 34°11' W 119°25'0 0.0
2018-Jun-13 16:31N 34°11' W 119°25'0 0.0
2018-Jun-13 16:00N 34°11' W 119°25'0 0.0
2018-Jun-13 15:28N 34°11' W 119°25'0 0.0
2018-Jun-13 15:00N 34°11' W 119°25'0 0.3
2018-Jun-13 14:30N 34°11' W 119°25'815.4
2018-Jun-13 13:59N 34°09' W 119°16'3 6.5
2018-Jun-13 13:30N 34°09' W 119°12'0 0.0
2018-Jun-13 13:00N 34°09' W 119°12'0 0.0
2018-Jun-13 12:28N 34°09' W 119°12'3 7.5
2018-Jun-13 12:00N 34°07' W 119°16'3 7.1
2018-Jun-13 11:31N 34°09' W 119°12'0 0.0
2018-Jun-13 10:59N 34°09' W 119°12'0 0.0
2018-Jun-13 10:24N 34°09' W 119°12'0 0.0
2018-Jun-13 09:59N 34°09' W 119°12'0 0.0
2018-Jun-13 09:03N 34°09' W 119°12'0 0.0
2018-Jun-13 08:28N 34°09' W 119°12'0 0.0
2018-Jun-13 08:00N 34°09' W 119°12'0 0.0
2018-Jun-13 07:04N 34°09' W 119°12'0 0.0
2018-Jun-13 06:50N 34°09' W 119°12'0 0.0
2018-Jun-13 06:30N 34°09' W 119°12'0 0.0
2018-Jun-13 05:55N 34°09' W 119°12'0 0.0
2018-Jun-13 05:29N 34°09' W 119°12'0 0.0
2018-Jun-13 04:58N 34°09' W 119°12'0 0.0
2018-Jun-13 04:31N 34°09' W 119°12'0 0.0
2018-Jun-13 04:00N 34°09' W 119°12'0 0.0
2018-Jun-13 03:13N 34°09' W 119°12'0 0.0
2018-Jun-13 02:58N 34°09' W 119°12'0 0.0
2018-Jun-13 02:22N 34°09' W 119°12'0 0.0
2018-Jun-13 02:00N 34°09' W 119°12'0 0.0
2018-Jun-13 01:29N 34°09' W 119°12'0 0.0
2018-Jun-13 01:00N 34°09' W 119°12'0 0.0
2018-Jun-13 00:30N 34°09' W 119°12'1 1.6
2018-Jun-13 00:00N 34°08' W 119°12'2 4.1
2018-Jun-12 23:30N 34°08' W 119°15'2 3.9
2018-Jun-12 23:00N 34°09' W 119°16'814.7
2018-Jun-12 22:30N 34°11' W 119°25'3 5.4
2018-Jun-12 22:00N 34°13' W 119°27'714.7
2018-Jun-12 21:31N 34°19' W 119°32'4 7.4
2018-Jun-12 20:57N 34°23' W 119°30'2 4.9
2018-Jun-12 20:30N 34°21' W 119°30'815.5
2018-Jun-12 20:01N 34°16' W 119°23'815.7
2018-Jun-12 19:30N 34°10' W 119°16'3 6.8
2018-Jun-12 19:00N 34°09' W 119°12'4 7.0
2018-Jun-12 18:30N 34°09' W 119°16'715.3
2018-Jun-12 18:00N 34°11' W 119°25'4 8.6
2018-Jun-12 17:29N 34°09' W 119°20'4 7.3
2018-Jun-12 17:00N 34°07' W 119°17'0 0.5
2018-Jun-12 16:29N 34°07' W 119°16'2 3.5
2018-Jun-12 16:00N 34°08' W 119°15'612.4
2018-Jun-12 15:29N 34°10' W 119°22'2 4.0
2018-Jun-12 14:57N 34°10' W 119°19'613.8
2018-Jun-12 14:30N 34°09' W 119°12'0 0.0
2018-Jun-12 14:00N 34°09' W 119°12'0 0.0
2018-Jun-12 13:30N 34°09' W 119°12'0 0.0
2018-Jun-12 13:00N 34°09' W 119°12'0 0.0
2018-Jun-12 12:30N 34°09' W 119°12'3 5.8
2018-Jun-12 11:59N 34°08' W 119°15'3 6.4
2018-Jun-12 11:30N 34°09' W 119°12'0 0.0
2018-Jun-12 11:00N 34°09' W 119°12'0 0.0
2018-Jun-12 10:30N 34°09' W 119°12'0 0.0
2018-Jun-12 10:00N 34°09' W 119°12'0 0.0
2018-Jun-12 09:30N 34°09' W 119°12'0 0.0
2018-Jun-12 09:00N 34°09' W 119°12'0 0.0
2018-Jun-12 08:30N 34°09' W 119°12'0 0.0
2018-Jun-12 08:00N 34°09' W 119°12'0 0.0
2018-Jun-12 07:30N 34°09' W 119°12'0 0.0
2018-Jun-12 07:00N 34°09' W 119°12'0 0.0
2018-Jun-12 06:30N 34°09' W 119°12'0 0.0
2018-Jun-12 05:58N 34°09' W 119°12'0 0.0
2018-Jun-12 05:30N 34°09' W 119°12'0 0.0
2018-Jun-12 05:00N 34°09' W 119°12'0 0.0
2018-Jun-12 04:30N 34°09' W 119°12'0 0.0
2018-Jun-12 03:58N 34°09' W 119°12'0 0.0
2018-Jun-12 03:30N 34°09' W 119°12'0 0.0
2018-Jun-12 03:00N 34°09' W 119°12'0 0.0
2018-Jun-12 02:25N 34°09' W 119°12'0 0.0
2018-Jun-12 01:57N 34°09' W 119°12'0 0.0
2018-Jun-12 01:27N 34°09' W 119°12'0 0.0
2018-Jun-12 00:52N 34°09' W 119°12'0 0.0
2018-Jun-12 00:27N 34°09' W 119°12'0 0.0
2018-Jun-12 00:00N 34°09' W 119°12'2 3.6
2018-Jun-11 23:28N 34°08' W 119°14'2 5.1
2018-Jun-11 23:00N 34°09' W 119°17'713.9
2018-Jun-11 22:29N 34°11' W 119°25'3 6.4
2018-Jun-11 22:00N 34°10' W 119°22'814.2
2018-Jun-11 21:28N 34°09' W 119°12'0 0.5
2018-Jun-11 20:57N 34°09' W 119°12'0 0.0
2018-Jun-11 20:30N 34°09' W 119°12'0 0.0
2018-Jun-11 19:58N 34°09' W 119°12'0 0.0
2018-Jun-11 19:29N 34°09' W 119°12'0 0.0
2018-Jun-11 19:00N 34°09' W 119°12'510.5
2018-Jun-11 18:30N 34°10' W 119°18'4 7.4
2018-Jun-11 17:57N 34°10' W 119°23'713.9
2018-Jun-11 17:29N 34°07' W 119°16'4 7.9
2018-Jun-11 17:01N 34°09' W 119°12'0 0.0
2018-Jun-11 16:31N 34°09' W 119°12'0 0.0
2018-Jun-11 16:01N 34°09' W 119°12'0 0.6
2018-Jun-11 15:30N 34°09' W 119°12'815.4
2018-Jun-11 14:59N 34°11' W 119°22'3 5.4
2018-Jun-11 14:29N 34°08' W 119°20'612.5
2018-Jun-11 14:00N 34°09' W 119°13'0 0.9
2018-Jun-11 13:29N 34°09' W 119°12'0 0.5
2018-Jun-11 13:00N 34°09' W 119°12'1 2.3
2018-Jun-11 12:30N 34°08' W 119°13'2 4.4
2018-Jun-11 11:59N 34°07' W 119°16'4 7.3
2018-Jun-11 11:30N 34°09' W 119°12'0 0.0
2018-Jun-11 11:01N 34°09' W 119°12'0 0.0
2018-Jun-11 10:30N 34°09' W 119°12'0 0.0
2018-Jun-11 10:00N 34°09' W 119°12'0 0.0
2018-Jun-11 09:29N 34°09' W 119°12'0 0.0
2018-Jun-11 08:57N 34°09' W 119°12'0 0.0
2018-Jun-11 08:30N 34°09' W 119°12'0 0.0
2018-Jun-11 07:56N 34°09' W 119°12'0 0.0
2018-Jun-11 07:26N 34°09' W 119°12'0 0.0
2018-Jun-11 07:00N 34°09' W 119°12'0 0.0
2018-Jun-11 06:30N 34°09' W 119°12'0 0.0
2018-Jun-11 06:00N 34°09' W 119°12'0 0.0
2018-Jun-11 05:29N 34°09' W 119°12'0 0.0
2018-Jun-11 05:01N 34°09' W 119°12'0 0.0
2018-Jun-11 04:29N 34°09' W 119°12'0 0.0
2018-Jun-11 03:57N 34°09' W 119°12'0 0.0
2018-Jun-11 03:27N 34°09' W 119°12'0 0.0
2018-Jun-11 03:00N 34°09' W 119°12'1 2.9
2018-Jun-11 02:30N 34°09' W 119°14'916.5
2018-Jun-11 01:59N 34°11' W 119°24'510.1
2018-Jun-11 01:27N 34°08' W 119°18'511.7
2018-Jun-11 01:00N 34°09' W 119°12'0 0.0
2018-Jun-11 00:29N 34°09' W 119°12'0 0.3
2018-Jun-11 00:00N 34°09' W 119°12'3 6.0
2018-Jun-10 23:28N 34°07' W 119°16'3 6.7
2018-Jun-10 22:58N 34°09' W 119°12'0 0.0
2018-Jun-10 22:29N 34°09' W 119°12'0 0.0
2018-Jun-10 22:00N 34°09' W 119°12'1 1.8
2018-Jun-10 21:28N 34°08' W 119°13'714.0
2018-Jun-10 21:00N 34°09' W 119°21'1 2.0
2018-Jun-10 20:29N 34°10' W 119°20'713.5
2018-Jun-10 19:59N 34°09' W 119°12'5 9.2
2018-Jun-10 19:28N 34°07' W 119°18'612.2
2018-Jun-10 18:57N 34°11' W 119°24'716.0
2018-Jun-10 18:30N 34°09' W 119°16'3 5.4
2018-Jun-10 17:57N 34°09' W 119°12'0 0.0
2018-Jun-10 17:29N 34°09' W 119°12'0 0.0
2018-Jun-10 16:59N 34°09' W 119°12'0 0.1
2018-Jun-10 16:19N 34°09' W 119°12'0 0.1
2018-Jun-10 15:57N 34°09' W 119°12'4 8.5
2018-Jun-10 15:30N 34°08' W 119°17'610.9
2018-Jun-10 14:57N 34°11' W 119°23'7 7.5
2018-Jun-10 13:59N 34°09' W 119°14'2 3.7
2018-Jun-10 13:28N 34°09' W 119°12'0 0.0
2018-Jun-10 12:59N 34°09' W 119°12'0 0.0
2018-Jun-10 12:30N 34°09' W 119°12'3 5.9
2018-Jun-10 12:00N 34°08' W 119°15'3 6.1
2018-Jun-10 11:30N 34°09' W 119°12'0 0.0
2018-Jun-10 11:00N 34°09' W 119°12'0 0.0
2018-Jun-10 10:30N 34°09' W 119°12'0 0.0
2018-Jun-10 09:59N 34°09' W 119°12'0 0.0
2018-Jun-10 09:30N 34°09' W 119°12'0 0.0
2018-Jun-10 08:57N 34°09' W 119°12'0 0.0
2018-Jun-10 08:14N 34°09' W 119°12'0 0.0
2018-Jun-10 07:57N 34°09' W 119°12'0 0.0
2018-Jun-10 07:30N 34°09' W 119°12'0 0.0
2018-Jun-10 06:56N 34°09' W 119°12'0 0.0
2018-Jun-10 06:22N 34°09' W 119°12'0 0.0
2018-Jun-10 06:00N 34°09' W 119°12'0 0.0
2018-Jun-10 05:30N 34°09' W 119°12'0 0.0
2018-Jun-10 05:00N 34°09' W 119°12'0 0.0
2018-Jun-10 04:30N 34°09' W 119°12'0 0.0
2018-Jun-10 03:59N 34°09' W 119°12'0 0.0
2018-Jun-10 03:28N 34°09' W 119°12'0 0.0
2018-Jun-10 02:59N 34°09' W 119°12'0 0.0
2018-Jun-10 02:26N 34°09' W 119°12'0 0.0
2018-Jun-10 01:59N 34°09' W 119°12'0 0.0
2018-Jun-10 01:27N 34°09' W 119°12'0 0.0
2018-Jun-10 00:59N 34°09' W 119°12'0 0.0
2018-Jun-10 00:29N 34°09' W 119°12'0 0.6
2018-Jun-10 00:00N 34°09' W 119°12'2 3.0
2018-Jun-09 23:30N 34°08' W 119°14'2 3.3
2018-Jun-09 23:00N 34°09' W 119°12'0 0.1
2018-Jun-09 22:29N 34°09' W 119°12'0 0.0
2018-Jun-09 21:57N 34°09' W 119°12'1 1.4
2018-Jun-09 21:30N 34°09' W 119°13'1 2.3
2018-Jun-09 21:00N 34°08' W 119°14'2 3.8
2018-Jun-09 20:30N 34°09' W 119°12'0 0.0
2018-Jun-09 20:00N 34°09' W 119°12'0 0.0
2018-Jun-09 19:27N 34°09' W 119°12'0 0.0
2018-Jun-09 19:00N 34°09' W 119°12'0 0.0
2018-Jun-09 18:29N 34°09' W 119°12'0 0.0
2018-Jun-09 17:59N 34°09' W 119°12'0 0.0
2018-Jun-09 17:30N 34°09' W 119°12'0 0.0
2018-Jun-09 16:58N 34°09' W 119°12'0 0.0
2018-Jun-09 16:29N 34°09' W 119°12'0 0.0
2018-Jun-09 15:56N 34°09' W 119°12'0 0.0
2018-Jun-09 14:59N 34°09' W 119°12'0 0.0
2018-Jun-09 14:30N 34°09' W 119°12'0 0.0
2018-Jun-09 14:00N 34°09' W 119°12'0 0.0
2018-Jun-09 13:29N 34°09' W 119°12'0 0.0
2018-Jun-09 13:00N 34°09' W 119°12'4 7.3
2018-Jun-09 12:29N 34°07' W 119°16'4 7.7
2018-Jun-09 11:58N 34°09' W 119°12'0 0.0
2018-Jun-09 11:28N 34°09' W 119°12'0 0.0
2018-Jun-09 11:00N 34°09' W 119°12'0 0.0
2018-Jun-09 10:30N 34°09' W 119°12'0 0.0
2018-Jun-09 10:01N 34°09' W 119°12'0 0.0
2018-Jun-09 09:29N 34°09' W 119°12'0 0.0
2018-Jun-09 09:00N 34°09' W 119°12'0 0.0
2018-Jun-09 08:23N 34°09' W 119°12'0 0.0
2018-Jun-09 07:53N 34°09' W 119°12'0 0.0
2018-Jun-09 07:28N 34°09' W 119°12'0 0.0
2018-Jun-09 06:58N 34°09' W 119°12'0 0.0
2018-Jun-09 06:26N 34°09' W 119°12'0 0.0
2018-Jun-09 05:56N 34°09' W 119°12'0 0.0
2018-Jun-09 05:16N 34°09' W 119°12'0 0.0
2018-Jun-09 04:52N 34°09' W 119°12'0 0.0
2018-Jun-09 04:30N 34°09' W 119°12'0 0.0
2018-Jun-09 03:58N 34°09' W 119°12'  
Track history (hours):
 
Tides and Currents Weather Stations Pressure Air Temp Water Temp Dewpoint Dewpoint Depression Visibility Wind Speed Wind Dir Waves Ship Positions

Capt. T Le

Owner: SO CAL SHIP SERVICES, INC, TERMINAL ISLAND, CA. More information available from US FCC via Universal Licensing System and Coast Guard Vessel Documentation Center.

Last reported at 2018-Jun-19 03:58 UTC. Time now 2018-Jun-19 04:22 UTC.
Position N 34°09' W 119°12'.

Length 30 m; draft 2 m.

Type: Ship (hazmat cat B). MMSI: 367104030.

Date/timePositionNaut miles runAvg speedWind from/ knotsBaromVisibWave heightAir tempDewpointWater temp
2018-Jun-19 03:58N 34°09' W 119°12'0 0.0
2018-Jun-19 03:30N 34°09' W 119°12'0 0.0
2018-Jun-19 03:00N 34°09' W 119°12'1 2.3
2018-Jun-19 02:30N 34°09' W 119°13'816.7
2018-Jun-19 02:00N 34°11' W 119°23'4 8.3
2018-Jun-19 01:27N 34°09' W 119°18'511.2
2018-Jun-19 01:00N 34°09' W 119°12'0 0.0
2018-Jun-19 00:29N 34°09' W 119°12'0 0.0
2018-Jun-19 00:00N 34°09' W 119°12'0 0.0
2018-Jun-18 23:29N 34°09' W 119°12'5 9.3
2018-Jun-18 22:58N 34°08' W 119°18'715.3
2018-Jun-18 22:30N 34°11' W 119°25'0 0.3
2018-Jun-18 22:00N 34°11' W 119°25'0 0.0
2018-Jun-18 21:30N 34°11' W 119°25'4 8.3
2018-Jun-18 20:58N 34°10' W 119°20'713.9
2018-Jun-18 20:30N 34°09' W 119°12'0 0.4
2018-Jun-18 20:00N 34°09' W 119°12'0 0.0
2018-Jun-18 19:30N 34°09' W 119°12'2 4.9
2018-Jun-18 19:00N 34°09' W 119°15'816.1
2018-Jun-18 18:30N 34°11' W 119°25'712.6
2018-Jun-18 17:57N 34°07' W 119°17'510.0
2018-Jun-18 17:26N 34°10' W 119°23'2 5.4
2018-Jun-18 17:00N 34°11' W 119°25'0 0.0
2018-Jun-18 16:30N 34°11' W 119°25'0 0.3
2018-Jun-18 16:00N 34°11' W 119°25'0 0.0
2018-Jun-18 15:29N 34°11' W 119°25'0 0.0
2018-Jun-18 14:59N 34°11' W 119°25'612.2
2018-Jun-18 14:30N 34°08' W 119°19'611.3
2018-Jun-18 14:00N 34°09' W 119°12'0 0.0
2018-Jun-18 13:29N 34°09' W 119°12'0 0.0
2018-Jun-18 12:59N 34°09' W 119°12'0 0.0
2018-Jun-18 12:30N 34°09' W 119°12'0 0.0
2018-Jun-18 11:58N 34°09' W 119°12'0 0.0
2018-Jun-18 11:30N 34°09' W 119°12'0 0.0
2018-Jun-18 10:59N 34°09' W 119°12'0 0.0
2018-Jun-18 10:30N 34°09' W 119°12'0 0.0
2018-Jun-18 10:00N 34°09' W 119°12'0 0.0
2018-Jun-18 09:29N 34°09' W 119°12'0 0.0
2018-Jun-18 09:00N 34°09' W 119°12'0 0.0
2018-Jun-18 08:30N 34°09' W 119°12'0 0.0
2018-Jun-18 08:00N 34°09' W 119°12'0 0.0
2018-Jun-18 07:30N 34°09' W 119°12'0 0.0
2018-Jun-18 07:00N 34°09' W 119°12'0 0.0
2018-Jun-18 06:28N 34°09' W 119°12'0 0.0
2018-Jun-18 06:00N 34°09' W 119°12'0 0.0
2018-Jun-18 05:21N 34°09' W 119°12'0 0.2
2018-Jun-18 05:00N 34°09' W 119°12'815.4
2018-Jun-18 04:28N 34°10' W 119°22'2 4.3
2018-Jun-18 04:00N 34°09' W 119°21'4 7.2
2018-Jun-18 03:29N 34°07' W 119°17'0 0.1
2018-Jun-18 03:00N 34°07' W 119°17'3 5.4
2018-Jun-18 02:30N 34°08' W 119°14'3 5.4
2018-Jun-18 02:00N 34°07' W 119°17'816.0
2018-Jun-18 01:31N 34°11' W 119°25'815.1
2018-Jun-18 01:00N 34°09' W 119°16'3 6.8
2018-Jun-18 00:30N 34°09' W 119°12'0 0.0
2018-Jun-18 00:00N 34°09' W 119°12'0 0.8
2018-Jun-17 23:30N 34°09' W 119°13'4 8.0
2018-Jun-17 23:00N 34°07' W 119°17'814.7
2018-Jun-17 22:30N 34°11' W 119°25'0 0.1
2018-Jun-17 22:00N 34°11' W 119°25'612.8
2018-Jun-17 21:29N 34°08' W 119°18'510.4
2018-Jun-17 20:59N 34°09' W 119°12'0 0.0
2018-Jun-17 20:30N 34°09' W 119°12'0 0.0
2018-Jun-17 20:00N 34°09' W 119°12'0 0.0
2018-Jun-17 19:30N 34°09' W 119°12'0 0.0
2018-Jun-17 19:00N 34°09' W 119°12'2 4.2
2018-Jun-17 18:30N 34°08' W 119°14'813.5
2018-Jun-17 17:56N 34°10' W 119°23'4 8.3
2018-Jun-17 17:27N 34°10' W 119°18'510.8
2018-Jun-17 16:58N 34°09' W 119°12'0 0.0
2018-Jun-17 16:30N 34°09' W 119°12'0 0.0
2018-Jun-17 15:54N 34°09' W 119°12'4 9.9
2018-Jun-17 15:29N 34°07' W 119°17'5 9.9
2018-Jun-17 14:59N 34°12' W 119°18'612.7
2018-Jun-17 14:30N 34°11' W 119°25'816.2
2018-Jun-17 14:00N 34°09' W 119°15'3 5.4
2018-Jun-17 13:30N 34°09' W 119°12'0 0.0
2018-Jun-17 13:00N 34°09' W 119°12'0 0.0
2018-Jun-17 12:30N 34°09' W 119°12'0 0.0
2018-Jun-17 12:00N 34°09' W 119°12'0 0.0
2018-Jun-17 11:29N 34°09' W 119°12'0 0.0
2018-Jun-17 11:00N 34°09' W 119°12'0 0.0
2018-Jun-17 10:30N 34°09' W 119°12'0 0.0
2018-Jun-17 09:57N 34°09' W 119°12'0 0.0
2018-Jun-17 09:29N 34°09' W 119°12'0 0.0
2018-Jun-17 09:00N 34°09' W 119°12'0 0.0
2018-Jun-17 08:29N 34°09' W 119°12'0 0.0
2018-Jun-17 07:56N 34°09' W 119°12'0 0.0
2018-Jun-17 07:29N 34°09' W 119°12'0 0.0
2018-Jun-17 06:59N 34°09' W 119°12'0 0.0
2018-Jun-17 06:30N 34°09' W 119°12'0 0.0
2018-Jun-17 06:00N 34°09' W 119°12'0 0.0
2018-Jun-17 05:30N 34°09' W 119°12'0 0.0
2018-Jun-17 04:55N 34°09' W 119°12'0 0.0
2018-Jun-17 04:30N 34°09' W 119°12'0 0.0
2018-Jun-17 04:00N 34°09' W 119°12'0 0.0
2018-Jun-17 03:30N 34°09' W 119°12'0 0.0
2018-Jun-17 03:00N 34°09' W 119°12'0 0.0
2018-Jun-17 02:28N 34°09' W 119°12'0 0.0
2018-Jun-17 01:59N 34°09' W 119°12'0 0.0
2018-Jun-17 01:30N 34°09' W 119°12'0 0.0
2018-Jun-17 00:57N 34°09' W 119°12'0 0.0
2018-Jun-17 00:30N 34°09' W 119°12'0 0.0
2018-Jun-16 23:58N 34°09' W 119°12'0 0.1
2018-Jun-16 23:28N 34°09' W 119°12'610.9
2018-Jun-16 22:56N 34°08' W 119°19'612.0
2018-Jun-16 22:28N 34°11' W 119°25'0 0.3
2018-Jun-16 21:59N 34°11' W 119°25'0 0.0
2018-Jun-16 21:30N 34°11' W 119°25'0 0.0
2018-Jun-16 21:00N 34°11' W 119°25'0 0.0
2018-Jun-16 20:29N 34°11' W 119°25'0 0.0
2018-Jun-16 19:59N 34°11' W 119°25'0 0.0
2018-Jun-16 19:30N 34°11' W 119°25'0 0.0
2018-Jun-16 19:00N 34°11' W 119°25'0 0.0
2018-Jun-16 18:30N 34°11' W 119°25'0 0.0
2018-Jun-16 17:59N 34°11' W 119°25'0 0.0
2018-Jun-16 17:30N 34°11' W 119°25'0 0.3
2018-Jun-16 17:00N 34°11' W 119°25'0 0.0
2018-Jun-16 16:29N 34°11' W 119°25'0 0.0
2018-Jun-16 16:00N 34°11' W 119°25'0 0.0
2018-Jun-16 15:30N 34°11' W 119°25'0 0.1
2018-Jun-16 15:00N 34°11' W 119°25'0 0.3
2018-Jun-16 14:31N 34°11' W 119°25'815.7
2018-Jun-16 14:00N 34°09' W 119°16'3 6.0
2018-Jun-16 13:30N 34°09' W 119°12'0 0.0
2018-Jun-16 12:58N 34°09' W 119°12'0 0.0
2018-Jun-16 12:28N 34°09' W 119°12'0 0.0
2018-Jun-16 11:58N 34°09' W 119°12'0 0.0
2018-Jun-16 11:30N 34°09' W 119°12'0 0.0
2018-Jun-16 10:58N 34°09' W 119°12'0 0.0
2018-Jun-16 10:30N 34°09' W 119°12'0 0.0
2018-Jun-16 09:56N 34°09' W 119°12'0 0.0
2018-Jun-16 09:30N 34°09' W 119°12'0 0.0
2018-Jun-16 09:00N 34°09' W 119°12'0 0.0
2018-Jun-16 08:29N 34°09' W 119°12'0 0.0
2018-Jun-16 07:53N 34°09' W 119°12'0 0.0
2018-Jun-16 07:30N 34°09' W 119°12'0 0.0
2018-Jun-16 07:00N 34°09' W 119°12'0 0.0
2018-Jun-16 06:29N 34°09' W 119°12'0 0.0
2018-Jun-16 05:57N 34°09' W 119°12'0 0.0
2018-Jun-16 05:31N 34°09' W 119°12'0 0.0
2018-Jun-16 05:00N 34°09' W 119°12'0 0.0
2018-Jun-16 04:28N 34°09' W 119°12'0 0.0
2018-Jun-16 04:00N 34°09' W 119°12'0 0.0
2018-Jun-16 03:27N 34°09' W 119°12'0 0.0
2018-Jun-16 02:58N 34°09' W 119°12'0 0.0
2018-Jun-16 02:28N 34°09' W 119°12'713.6
2018-Jun-16 01:56N 34°10' W 119°21'2 4.3
2018-Jun-16 01:30N 34°10' W 119°23'816.0
2018-Jun-16 00:59N 34°09' W 119°14'1 2.3
2018-Jun-16 00:27N 34°09' W 119°12'0 0.0
2018-Jun-15 23:58N 34°09' W 119°12'0 0.6
2018-Jun-15 23:23N 34°09' W 119°13'512.7
2018-Jun-15 22:58N 34°08' W 119°19'610.4
2018-Jun-15 22:24N 34°11' W 119°25'0 0.0
2018-Jun-15 22:00N 34°11' W 119°25'0 0.0
2018-Jun-15 21:30N 34°11' W 119°25'0 0.0
2018-Jun-15 20:57N 34°11' W 119°25'0 0.3
2018-Jun-15 20:28N 34°11' W 119°25'5 9.8
2018-Jun-15 20:00N 34°10' W 119°20'612.0
2018-Jun-15 19:28N 34°09' W 119°12'0 0.0
2018-Jun-15 18:57N 34°09' W 119°12'0 0.0
2018-Jun-15 18:30N 34°09' W 119°12'0 0.1
2018-Jun-15 17:42N 34°09' W 119°12'0 0.9
2018-Jun-15 17:21N 34°09' W 119°12'713.9
2018-Jun-15 16:53N 34°10' W 119°20'4 2.2
2018-Jun-15 15:01N 34°11' W 119°25'0 0.5
2018-Jun-15 14:55N 34°11' W 119°25'713.0
2018-Jun-15 14:21N 34°07' W 119°17'412.1
2018-Jun-15 14:00N 34°09' W 119°12'0 0.6
2018-Jun-15 13:30N 34°09' W 119°12'0 0.0
2018-Jun-15 13:00N 34°09' W 119°12'0 0.0
2018-Jun-15 12:29N 34°09' W 119°12'0 0.0
2018-Jun-15 11:53N 34°09' W 119°12'0 0.0
2018-Jun-15 11:27N 34°09' W 119°12'0 0.0
2018-Jun-15 10:57N 34°09' W 119°12'0 0.0
2018-Jun-15 10:30N 34°09' W 119°12'0 0.0
2018-Jun-15 09:58N 34°09' W 119°12'0 0.0
2018-Jun-15 09:29N 34°09' W 119°12'0 0.0
2018-Jun-15 08:58N 34°09' W 119°12'0 0.0
2018-Jun-15 08:30N 34°09' W 119°12'0 0.0
2018-Jun-15 07:19N 34°09' W 119°12'0 0.0
2018-Jun-15 06:57N 34°09' W 119°12'0 0.0
2018-Jun-15 06:25N 34°09' W 119°12'0 0.0
2018-Jun-15 05:57N 34°09' W 119°12'0 0.0
2018-Jun-15 05:27N 34°09' W 119°12'0 0.0
2018-Jun-15 04:53N 34°09' W 119°12'0 0.0
2018-Jun-15 04:27N 34°09' W 119°12'0 0.0
2018-Jun-15 03:54N 34°09' W 119°12'0 0.0
2018-Jun-15 03:30N 34°09' W 119°12'0 0.0
2018-Jun-15 02:56N 34°09' W 119°12'0 0.1
2018-Jun-15 02:30N 34°09' W 119°12'815.0
2018-Jun-15 01:58N 34°10' W 119°22'4 6.3
2018-Jun-15 01:17N 34°09' W 119°17'413.6
2018-Jun-15 01:00N 34°09' W 119°12'0 0.1
2018-Jun-15 00:30N 34°09' W 119°12'3 6.4
2018-Jun-15 00:00N 34°07' W 119°15'3 5.3
2018-Jun-14 23:27N 34°09' W 119°12'512.0
2018-Jun-14 23:00N 34°08' W 119°19'5 9.5
2018-Jun-14 22:30N 34°10' W 119°24'713.7
2018-Jun-14 22:00N 34°07' W 119°17'612.5
2018-Jun-14 21:30N 34°10' W 119°23'2 3.6
2018-Jun-14 21:00N 34°11' W 119°25'612.8
2018-Jun-14 20:30N 34°17' W 119°28'712.0
2018-Jun-14 19:57N 34°23' W 119°30'0 0.0
2018-Jun-14 19:30N 34°23' W 119°30'611.5
2018-Jun-14 19:00N 34°17' W 119°29'714.8
2018-Jun-14 18:30N 34°11' W 119°25'815.8
2018-Jun-14 18:00N 34°09' W 119°16'3 6.2
2018-Jun-14 17:30N 34°09' W 119°12'0 0.0
2018-Jun-14 17:00N 34°09' W 119°12'0 0.1
2018-Jun-14 16:31N 34°09' W 119°12'0 0.1
2018-Jun-14 16:00N 34°09' W 119°12'0 0.6
2018-Jun-14 15:30N 34°09' W 119°12'713.9
2018-Jun-14 15:00N 34°10' W 119°21'2 3.7
2018-Jun-14 14:30N 34°10' W 119°23'714.0
2018-Jun-14 14:00N 34°08' W 119°15'3 5.7
2018-Jun-14 13:30N 34°09' W 119°12'0 0.0
2018-Jun-14 12:58N 34°09' W 119°12'0 0.6
2018-Jun-14 12:30N 34°09' W 119°12'0 0.9
2018-Jun-14 12:00N 34°09' W 119°13'1 1.4
2018-Jun-14 11:30N 34°09' W 119°12'0 0.0
2018-Jun-14 10:57N 34°09' W 119°12'0 0.0
2018-Jun-14 10:30N 34°09' W 119°12'0 0.0
2018-Jun-14 10:00N 34°09' W 119°12'0 0.0
2018-Jun-14 09:30N 34°09' W 119°12'0 0.0
2018-Jun-14 08:58N 34°09' W 119°12'0 0.0
2018-Jun-14 08:30N 34°09' W 119°12'0 0.0
2018-Jun-14 08:00N 34°09' W 119°12'0 0.0
2018-Jun-14 07:29N 34°09' W 119°12'0 0.0
2018-Jun-14 07:00N 34°09' W 119°12'0 0.0
2018-Jun-14 06:28N 34°09' W 119°12'0 0.0
2018-Jun-14 06:00N 34°09' W 119°12'0 0.0
2018-Jun-14 05:30N 34°09' W 119°12'0 0.0
2018-Jun-14 04:59N 34°09' W 119°12'0 0.0
2018-Jun-14 04:30N 34°09' W 119°12'0 0.0
2018-Jun-14 03:57N 34°09' W 119°12'0 0.0
2018-Jun-14 03:28N 34°09' W 119°12'0 0.0
2018-Jun-14 03:00N 34°09' W 119°12'5 9.7
2018-Jun-14 02:30N 34°10' W 119°18'611.9
2018-Jun-14 01:59N 34°11' W 119°25'5 8.3
2018-Jun-14 01:25N 34°10' W 119°20'614.6
2018-Jun-14 01:00N 34°09' W 119°12'4 7.2
2018-Jun-14 00:28N 34°07' W 119°17'4 8.7
2018-Jun-14 00:00N 34°09' W 119°12'0 0.0
2018-Jun-13 23:28N 34°09' W 119°12'613.2
2018-Jun-13 23:00N 34°09' W 119°20'510.4
2018-Jun-13 22:30N 34°11' W 119°25'5 9.9
2018-Jun-13 22:00N 34°15' W 119°28'715.2
2018-Jun-13 21:30N 34°22' W 119°31'2 3.1
2018-Jun-13 21:00N 34°21' W 119°32'816.1
2018-Jun-13 20:30N 34°16' W 119°24'816.4
2018-Jun-13 20:00N 34°11' W 119°17'3 6.2
2018-Jun-13 19:31N 34°08' W 119°14'713.6
2018-Jun-13 19:01N 34°10' W 119°22'3 5.1
2018-Jun-13 18:30N 34°11' W 119°25'0 0.0
2018-Jun-13 18:00N 34°11' W 119°25'0 0.0
2018-Jun-13 17:31N 34°11' W 119°25'0 0.0
2018-Jun-13 17:01N 34°11' W 119°25'0 0.0
2018-Jun-13 16:31N 34°11' W 119°25'0 0.0
2018-Jun-13 16:00N 34°11' W 119°25'0 0.0
2018-Jun-13 15:28N 34°11' W 119°25'0 0.0
2018-Jun-13 15:00N 34°11' W 119°25'0 0.3
2018-Jun-13 14:30N 34°11' W 119°25'815.4
2018-Jun-13 13:59N 34°09' W 119°16'3 6.5
2018-Jun-13 13:30N 34°09' W 119°12'0 0.0
2018-Jun-13 13:00N 34°09' W 119°12'0 0.0
2018-Jun-13 12:28N 34°09' W 119°12'3 7.5
2018-Jun-13 12:00N 34°07' W 119°16'3 7.1
2018-Jun-13 11:31N 34°09' W 119°12'0 0.0
2018-Jun-13 10:59N 34°09' W 119°12'0 0.0
2018-Jun-13 10:24N 34°09' W 119°12'0 0.0
2018-Jun-13 09:59N 34°09' W 119°12'0 0.0
2018-Jun-13 09:03N 34°09' W 119°12'0 0.0
2018-Jun-13 08:28N 34°09' W 119°12'0 0.0
2018-Jun-13 08:00N 34°09' W 119°12'0 0.0
2018-Jun-13 07:04N 34°09' W 119°12'0 0.0
2018-Jun-13 06:50N 34°09' W 119°12'0 0.0
2018-Jun-13 06:30N 34°09' W 119°12'0 0.0
2018-Jun-13 05:55N 34°09' W 119°12'0 0.0
2018-Jun-13 05:29N 34°09' W 119°12'0 0.0
2018-Jun-13 04:58N 34°09' W 119°12'0 0.0
2018-Jun-13 04:31N 34°09' W 119°12'0 0.0
2018-Jun-13 04:00N 34°09' W 119°12'0 0.0
2018-Jun-13 03:13N 34°09' W 119°12'0 0.0
2018-Jun-13 02:58N 34°09' W 119°12'0 0.0
2018-Jun-13 02:22N 34°09' W 119°12'0 0.0
2018-Jun-13 02:00N 34°09' W 119°12'0 0.0
2018-Jun-13 01:29N 34°09' W 119°12'0 0.0
2018-Jun-13 01:00N 34°09' W 119°12'0 0.0
2018-Jun-13 00:30N 34°09' W 119°12'1 1.6
2018-Jun-13 00:00N 34°08' W 119°12'2 4.1
2018-Jun-12 23:30N 34°08' W 119°15'2 3.9
2018-Jun-12 23:00N 34°09' W 119°16'814.7
2018-Jun-12 22:30N 34°11' W 119°25'3 5.4
2018-Jun-12 22:00N 34°13' W 119°27'714.7
2018-Jun-12 21:31N 34°19' W 119°32'4 7.4
2018-Jun-12 20:57N 34°23' W 119°30'2 4.9
2018-Jun-12 20:30N 34°21' W 119°30'815.5
2018-Jun-12 20:01N 34°16' W 119°23'815.7
2018-Jun-12 19:30N 34°10' W 119°16'3 6.8
2018-Jun-12 19:00N 34°09' W 119°12'4 7.0
2018-Jun-12 18:30N 34°09' W 119°16'715.3
2018-Jun-12 18:00N 34°11' W 119°25'4 8.6
2018-Jun-12 17:29N 34°09' W 119°20'4 7.3
2018-Jun-12 17:00N 34°07' W 119°17'0 0.5
2018-Jun-12 16:29N 34°07' W 119°16'2 3.5
2018-Jun-12 16:00N 34°08' W 119°15'612.4
2018-Jun-12 15:29N 34°10' W 119°22'2 4.0
2018-Jun-12 14:57N 34°10' W 119°19'613.8
2018-Jun-12 14:30N 34°09' W 119°12'0 0.0
2018-Jun-12 14:00N 34°09' W 119°12'0 0.0
2018-Jun-12 13:30N 34°09' W 119°12'0 0.0
2018-Jun-12 13:00N 34°09' W 119°12'0 0.0
2018-Jun-12 12:30N 34°09' W 119°12'3 5.8
2018-Jun-12 11:59N 34°08' W 119°15'3 6.4
2018-Jun-12 11:30N 34°09' W 119°12'0 0.0
2018-Jun-12 11:00N 34°09' W 119°12'0 0.0
2018-Jun-12 10:30N 34°09' W 119°12'0 0.0
2018-Jun-12 10:00N 34°09' W 119°12'0 0.0
2018-Jun-12 09:30N 34°09' W 119°12'0 0.0
2018-Jun-12 09:00N 34°09' W 119°12'0 0.0
2018-Jun-12 08:30N 34°09' W 119°12'0 0.0
2018-Jun-12 08:00N 34°09' W 119°12'0 0.0
2018-Jun-12 07:30N 34°09' W 119°12'0 0.0
2018-Jun-12 07:00N 34°09' W 119°12'0 0.0
2018-Jun-12 06:30N 34°09' W 119°12'0 0.0
2018-Jun-12 05:58N 34°09' W 119°12'0 0.0
2018-Jun-12 05:30N 34°09' W 119°12'0 0.0
2018-Jun-12 05:00N 34°09' W 119°12'0 0.0
2018-Jun-12 04:30N 34°09' W 119°12'0 0.0
2018-Jun-12 03:58N 34°09' W 119°12'0 0.0
2018-Jun-12 03:30N 34°09' W 119°12'0 0.0
2018-Jun-12 03:00N 34°09' W 119°12'0 0.0
2018-Jun-12 02:25N 34°09' W 119°12'0 0.0
2018-Jun-12 01:57N 34°09' W 119°12'0 0.0
2018-Jun-12 01:27N 34°09' W 119°12'0 0.0
2018-Jun-12 00:52N 34°09' W 119°12'0 0.0
2018-Jun-12 00:27N 34°09' W 119°12'0 0.0
2018-Jun-12 00:00N 34°09' W 119°12'2 3.6
2018-Jun-11 23:28N 34°08' W 119°14'2 5.1
2018-Jun-11 23:00N 34°09' W 119°17'713.9
2018-Jun-11 22:29N 34°11' W 119°25'3 6.4
2018-Jun-11 22:00N 34°10' W 119°22'814.2
2018-Jun-11 21:28N 34°09' W 119°12'0 0.5
2018-Jun-11 20:57N 34°09' W 119°12'0 0.0
2018-Jun-11 20:30N 34°09' W 119°12'0 0.0
2018-Jun-11 19:58N 34°09' W 119°12'0 0.0
2018-Jun-11 19:29N 34°09' W 119°12'0 0.0
2018-Jun-11 19:00N 34°09' W 119°12'510.5
2018-Jun-11 18:30N 34°10' W 119°18'4 7.4
2018-Jun-11 17:57N 34°10' W 119°23'713.9
2018-Jun-11 17:29N 34°07' W 119°16'4 7.9
2018-Jun-11 17:01N 34°09' W 119°12'0 0.0
2018-Jun-11 16:31N 34°09' W 119°12'0 0.0
2018-Jun-11 16:01N 34°09' W 119°12'0 0.6
2018-Jun-11 15:30N 34°09' W 119°12'815.4
2018-Jun-11 14:59N 34°11' W 119°22'3 5.4
2018-Jun-11 14:29N 34°08' W 119°20'612.5
2018-Jun-11 14:00N 34°09' W 119°13'0 0.9
2018-Jun-11 13:29N 34°09' W 119°12'0 0.5
2018-Jun-11 13:00N 34°09' W 119°12'1 2.3
2018-Jun-11 12:30N 34°08' W 119°13'2 4.4
2018-Jun-11 11:59N 34°07' W 119°16'4 7.3
2018-Jun-11 11:30N 34°09' W 119°12'0 0.0
2018-Jun-11 11:01N 34°09' W 119°12'0 0.0
2018-Jun-11 10:30N 34°09' W 119°12'0 0.0
2018-Jun-11 10:00N 34°09' W 119°12'0 0.0
2018-Jun-11 09:29N 34°09' W 119°12'0 0.0
2018-Jun-11 08:57N 34°09' W 119°12'0 0.0
2018-Jun-11 08:30N 34°09' W 119°12'0 0.0
2018-Jun-11 07:56N 34°09' W 119°12'0 0.0
2018-Jun-11 07:26N 34°09' W 119°12'0 0.0
2018-Jun-11 07:00N 34°09' W 119°12'0 0.0
2018-Jun-11 06:30N 34°09' W 119°12'0 0.0
2018-Jun-11 06:00N 34°09' W 119°12'0 0.0
2018-Jun-11 05:29N 34°09' W 119°12'0 0.0
2018-Jun-11 05:01N 34°09' W 119°12'0 0.0
2018-Jun-11 04:29N 34°09' W 119°12'0 0.0
2018-Jun-11 03:57N 34°09' W 119°12'0 0.0
2018-Jun-11 03:27N 34°09' W 119°12'0 0.0
2018-Jun-11 03:00N 34°09' W 119°12'1 2.9
2018-Jun-11 02:30N 34°09' W 119°14'916.5
2018-Jun-11 01:59N 34°11' W 119°24'510.1
2018-Jun-11 01:27N 34°08' W 119°18'511.7
2018-Jun-11 01:00N 34°09' W 119°12'0 0.0
2018-Jun-11 00:29N 34°09' W 119°12'0 0.3
2018-Jun-11 00:00N 34°09' W 119°12'3 6.0
2018-Jun-10 23:28N 34°07' W 119°16'3 6.7
2018-Jun-10 22:58N 34°09' W 119°12'0 0.0
2018-Jun-10 22:29N 34°09' W 119°12'0 0.0
2018-Jun-10 22:00N 34°09' W 119°12'1 1.8
2018-Jun-10 21:28N 34°08' W 119°13'714.0
2018-Jun-10 21:00N 34°09' W 119°21'1 2.0
2018-Jun-10 20:29N 34°10' W 119°20'713.5
2018-Jun-10 19:59N 34°09' W 119°12'5 9.2
2018-Jun-10 19:28N 34°07' W 119°18'612.2
2018-Jun-10 18:57N 34°11' W 119°24'716.0
2018-Jun-10 18:30N 34°09' W 119°16'3 5.4
2018-Jun-10 17:57N 34°09' W 119°12'0 0.0
2018-Jun-10 17:29N 34°09' W 119°12'0 0.0
2018-Jun-10 16:59N 34°09' W 119°12'0 0.1
2018-Jun-10 16:19N 34°09' W 119°12'0 0.1
2018-Jun-10 15:57N 34°09' W 119°12'4 8.5
2018-Jun-10 15:30N 34°08' W 119°17'610.9
2018-Jun-10 14:57N 34°11' W 119°23'7 7.5
2018-Jun-10 13:59N 34°09' W 119°14'2 3.7
2018-Jun-10 13:28N 34°09' W 119°12'0 0.0
2018-Jun-10 12:59N 34°09' W 119°12'0 0.0
2018-Jun-10 12:30N 34°09' W 119°12'3 5.9
2018-Jun-10 12:00N 34°08' W 119°15'3 6.1
2018-Jun-10 11:30N 34°09' W 119°12'0 0.0
2018-Jun-10 11:00N 34°09' W 119°12'0 0.0
2018-Jun-10 10:30N 34°09' W 119°12'0 0.0
2018-Jun-10 09:59N 34°09' W 119°12'0 0.0
2018-Jun-10 09:30N 34°09' W 119°12'0 0.0
2018-Jun-10 08:57N 34°09' W 119°12'0 0.0
2018-Jun-10 08:14N 34°09' W 119°12'0 0.0
2018-Jun-10 07:57N 34°09' W 119°12'0 0.0
2018-Jun-10 07:30N 34°09' W 119°12'0 0.0
2018-Jun-10 06:56N 34°09' W 119°12'0 0.0
2018-Jun-10 06:22N 34°09' W 119°12'0 0.0
2018-Jun-10 06:00N 34°09' W 119°12'0 0.0
2018-Jun-10 05:30N 34°09' W 119°12'0 0.0
2018-Jun-10 05:00N 34°09' W 119°12'0 0.0
2018-Jun-10 04:30N 34°09' W 119°12'0 0.0
2018-Jun-10 03:59N 34°09' W 119°12'0 0.0
2018-Jun-10 03:28N 34°09' W 119°12'0 0.0
2018-Jun-10 02:59N 34°09' W 119°12'0 0.0
2018-Jun-10 02:26N 34°09' W 119°12'0 0.0
2018-Jun-10 01:59N 34°09' W 119°12'0 0.0
2018-Jun-10 01:27N 34°09' W 119°12'0 0.0
2018-Jun-10 00:59N 34°09' W 119°12'0 0.0
2018-Jun-10 00:29N 34°09' W 119°12'0 0.6
2018-Jun-10 00:00N 34°09' W 119°12'2 3.0
2018-Jun-09 23:30N 34°08' W 119°14'2 3.3
2018-Jun-09 23:00N 34°09' W 119°12'0 0.1
2018-Jun-09 22:29N 34°09' W 119°12'0 0.0
2018-Jun-09 21:57N 34°09' W 119°12'1 1.4
2018-Jun-09 21:30N 34°09' W 119°13'1 2.3
2018-Jun-09 21:00N 34°08' W 119°14'2 3.8
2018-Jun-09 20:30N 34°09' W 119°12'0 0.0
2018-Jun-09 20:00N 34°09' W 119°12'0 0.0
2018-Jun-09 19:27N 34°09' W 119°12'0 0.0
2018-Jun-09 19:00N 34°09' W 119°12'0 0.0
2018-Jun-09 18:29N 34°09' W 119°12'0 0.0
2018-Jun-09 17:59N 34°09' W 119°12'0 0.0
2018-Jun-09 17:30N 34°09' W 119°12'0 0.0
2018-Jun-09 16:58N 34°09' W 119°12'0 0.0
2018-Jun-09 16:29N 34°09' W 119°12'0 0.0
2018-Jun-09 15:56N 34°09' W 119°12'0 0.0
2018-Jun-09 14:59N 34°09' W 119°12'0 0.0
2018-Jun-09 14:30N 34°09' W 119°12'0 0.0
2018-Jun-09 14:00N 34°09' W 119°12'0 0.0
2018-Jun-09 13:29N 34°09' W 119°12'0 0.0
2018-Jun-09 13:00N 34°09' W 119°12'4 7.3
2018-Jun-09 12:29N 34°07' W 119°16'4 7.7
2018-Jun-09 11:58N 34°09' W 119°12'0 0.0
2018-Jun-09 11:28N 34°09' W 119°12'0 0.0
2018-Jun-09 11:00N 34°09' W 119°12'0 0.0
2018-Jun-09 10:30N 34°09' W 119°12'0 0.0
2018-Jun-09 10:01N 34°09' W 119°12'0 0.0
2018-Jun-09 09:29N 34°09' W 119°12'0 0.0
2018-Jun-09 09:00N 34°09' W 119°12'0 0.0
2018-Jun-09 08:23N 34°09' W 119°12'0 0.0
2018-Jun-09 07:53N 34°09' W 119°12'0 0.0
2018-Jun-09 07:28N 34°09' W 119°12'0 0.0
2018-Jun-09 06:58N 34°09' W 119°12'0 0.0
2018-Jun-09 06:26N 34°09' W 119°12'0 0.0
2018-Jun-09 05:56N 34°09' W 119°12'0 0.0
2018-Jun-09 05:16N 34°09' W 119°12'0 0.0
2018-Jun-09 04:52N 34°09' W 119°12'0 0.0
2018-Jun-09 04:30N 34°09' W 119°12'0 0.0
2018-Jun-09 03:58N 34°09' W 119°12'  

Dump ship's entire track history